Time;durP1;ratioP1;P1;durP2;ratioP2;P2;SDS_P1;SDS_P2;PMS_P1;PMS_P2;Temp;Humidity;BMP_temperature;BMP_pressure;BME280_temperature;BME280_humidity;BME280_pressure;Samples;Min_cycle;Max_cycle;Signal;HPM_P1;HPM_P2
2022/05/17 00:02:04;;;;;;;;;;;;;;;21.98;45.76;99578.94;4449664;32;35703;-68
2022/05/17 00:04:33;;;;;;;;;;;;;;;21.85;46.09;99577.75;4447841;32;34220;-66
2022/05/17 00:07:02;;;;;;;;;;;;;;;21.77;46.22;99575.16;4448408;32;34245;-65
2022/05/17 00:09:31;;;;;;;;;;;;;;;21.89;46.07;99570.03;4452754;32;33290;-67
2022/05/17 00:12:00;;;;;;;;;;;;;;;22.13;45.62;99566.09;4449902;32;35086;-65
2022/05/17 00:14:28;;;;;;;;;;;;;;;22.30;45.09;99553.94;4440279;32;34268;-66
2022/05/17 00:16:57;;;;;;;;;;;;;;;22.37;44.87;99553.16;4444931;32;34143;-66
2022/05/17 00:19:26;;;;;;;;;;;;;;;22.37;45.05;99555.88;4450650;32;33288;-66
2022/05/17 00:21:55;;;;;;;;;;;;;;;22.48;44.67;99550.75;4445445;32;33784;-65
2022/05/17 00:24:23;;;;;;;;;;;;;;;22.38;44.79;99550.25;4446384;32;34530;-69
2022/05/17 00:26:52;;;;;;;;;;;;;;;22.17;45.21;99550.25;4448999;32;33718;-66
2022/05/17 00:29:21;;;;;;;;;;;;;;;22.27;44.91;99542.56;4457580;32;34598;-77
2022/05/17 00:31:49;;;;;;;;;;;;;;;22.15;45.29;99547.69;4444584;32;34127;-65
2022/05/17 00:34:18;;;;;;;;;;;;;;;22.30;44.79;99551.19;4455434;32;34241;-66
2022/05/17 00:36:46;;;;;;;;;;;;;;;22.09;45.21;99546.56;4459145;32;34397;-70
2022/05/17 00:39:14;;;;;;;;;;;;;;;22.23;44.87;99544.84;4450800;32;34390;-71
2022/05/17 00:41:42;;;;;;;;;;;;;;;22.21;44.86;99551.53;4451555;32;34410;-68
2022/05/17 00:47:00;;;;;;;;;;;;;;;22.32;44.65;99545.56;4448727;32;34014;-67
2022/05/17 00:49:32;;;;;;;;;;;;;;;22.30;44.67;99544.91;4450135;32;32355;-66
2022/05/17 00:52:03;;;;;;;;;;;;;;;22.27;44.73;99548.88;4453046;32;34294;-65
2022/05/17 00:54:31;;;;;;;;;;;;;;;22.26;44.71;99533.56;4450452;32;33881;-68
2022/05/17 00:57:02;;;;;;;;;;;;;;;22.22;45.03;99534.16;4449934;32;33031;-67
2022/05/17 00:59:30;;;;;;;;;;;;;;;22.04;45.50;99540.84;4449508;32;32229;-67
2022/05/17 01:01:59;;;;;;;;;;;;;;;22.04;45.72;99538.13;4448163;32;34358;-67
2022/05/17 01:04:26;;;;;;;;;;;;;;;22.19;45.07;99532.66;4447608;32;35052;-68
2022/05/17 01:07:00;;;;;;;;;;;;;;;22.25;44.82;99522.88;4449036;32;33892;-65
2022/05/17 01:09:28;;;;;;;;;;;;;;;22.31;44.89;99525.66;4451769;32;33509;-67
2022/05/17 01:11:56;;;;;;;;;;;;;;;22.22;45.07;99521.37;4449099;32;34473;-67
2022/05/17 01:17:10;;;;;;;;;;;;;;;22.36;44.70;99524.22;4450151;32;32922;-66
2022/05/17 01:19:39;;;;;;;;;;;;;;;22.35;44.63;99520.66;4445818;32;33057;-66
2022/05/17 01:22:07;;;;;;;;;;;;;;;22.39;44.59;99524.66;4446842;32;35150;-66
2022/05/17 01:24:35;;;;;;;;;;;;;;;22.32;44.63;99521.03;4446451;32;33863;-67
2022/05/17 01:27:29;;;;;;;;;;;;;;;22.34;44.55;99513.47;4449617;32;34368;-66
2022/05/17 01:29:57;;;;;;;;;;;;;;;22.08;45.19;99517.62;4443873;32;34366;-67
2022/05/17 01:32:24;;;;;;;;;;;;;;;21.94;45.56;99523.16;4448483;32;35250;-65
2022/05/17 01:34:52;;;;;;;;;;;;;;;21.99;45.63;99523.38;4451107;32;34285;-67
2022/05/17 01:37:21;;;;;;;;;;;;;;;21.91;46.06;99515.34;4451337;32;34610;-66
2022/05/17 01:39:49;;;;;;;;;;;;;;;21.93;46.13;99518.75;4448760;32;32992;-69
2022/05/17 01:42:16;;;;;;;;;;;;;;;22.08;45.59;99516.78;4451511;32;32933;-66
2022/05/17 01:44:44;;;;;;;;;;;;;;;22.08;45.71;99514.88;4454048;32;33890;-66
2022/05/17 01:47:12;;;;;;;;;;;;;;;22.13;45.56;99518.94;4452636;32;34276;-66
2022/05/17 01:49:40;;;;;;;;;;;;;;;22.18;45.36;99508.31;4450949;32;32761;-67
2022/05/17 01:52:09;;;;;;;;;;;;;;;22.23;45.30;99511.31;4450101;32;35210;-65
2022/05/17 01:54:36;;;;;;;;;;;;;;;22.26;45.11;99506.28;4450208;32;33158;-65
2022/05/17 01:57:05;;;;;;;;;;;;;;;22.29;45.07;99505.06;4448255;32;34280;-68
2022/05/17 01:59:33;;;;;;;;;;;;;;;22.25;45.11;99503.78;4448364;32;31967;-65
2022/05/17 02:02:01;;;;;;;;;;;;;;;22.18;45.41;99502.84;4449654;32;34014;-65
2022/05/17 02:04:31;;;;;;;;;;;;;;;22.14;45.66;99506.97;4450497;32;32769;-68
2022/05/17 02:07:00;;;;;;;;;;;;;;;22.15;45.51;99514.13;4447476;32;34670;-65
2022/05/17 02:09:28;;;;;;;;;;;;;;;22.18;45.71;99516.47;4450766;32;32981;-66
2022/05/17 02:11:58;;;;;;;;;;;;;;;22.14;46.04;99510.53;4443579;32;34098;-65
2022/05/17 02:14:28;;;;;;;;;;;;;;;22.17;46.01;99506.63;4444576;32;34309;-69
2022/05/17 02:16:58;;;;;;;;;;;;;;;22.28;45.75;99501.50;4445473;32;33056;-69
2022/05/17 02:19:28;;;;;;;;;;;;;;;22.22;46.48;99499.56;4446698;32;35527;-67
2022/05/17 02:21:57;;;;;;;;;;;;;;;22.02;46.75;99496.63;4444128;32;34013;-68
2022/05/17 02:24:27;;;;;;;;;;;;;;;22.24;46.06;99496.63;4448594;32;34471;-66
2022/05/17 02:26:56;;;;;;;;;;;;;;;21.79;47.30;99496.78;4448401;32;34305;-69
2022/05/17 02:29:26;;;;;;;;;;;;;;;21.47;48.29;99494.53;4447118;32;33436;-68
2022/05/17 02:31:54;;;;;;;;;;;;;;;21.70;47.76;99494.38;4447070;32;35202;-67
2022/05/17 02:34:24;;;;;;;;;;;;;;;21.98;46.95;99497.19;4446874;32;35114;-70
2022/05/17 02:36:53;;;;;;;;;;;;;;;21.88;47.42;99502.97;4446837;32;33163;-66
2022/05/17 02:39:21;;;;;;;;;;;;;;;22.01;47.07;99500.38;4447202;32;33509;-68
2022/05/17 02:41:50;;;;;;;;;;;;;;;22.10;46.80;99501.94;4449556;32;35139;-67
2022/05/17 02:44:18;;;;;;;;;;;;;;;22.20;46.52;99500.78;4449703;32;34254;-67
2022/05/17 02:46:46;;;;;;;;;;;;;;;22.24;46.39;99507.53;4448988;32;34115;-67
2022/05/17 02:49:14;;;;;;;;;;;;;;;22.27;46.85;99513.44;4449367;32;34399;-66
2022/05/17 02:51:43;;;;;;;;;;;;;;;22.34;46.52;99518.94;4450720;32;33101;-70
2022/05/17 02:54:11;;;;;;;;;;;;;;;22.41;46.54;99513.56;4434226;32;33768;-66
2022/05/17 02:56:40;;;;;;;;;;;;;;;22.37;46.49;99504.91;4449192;32;34940;-65
2022/05/17 02:59:12;;;;;;;;;;;;;;;22.51;45.90;99505.87;4447355;32;32142;-66
2022/05/17 03:01:42;;;;;;;;;;;;;;;22.60;45.76;99507.44;4449196;32;34473;-65
2022/05/17 03:04:14;;;;;;;;;;;;;;;22.60;45.79;99510.16;4446879;32;34205;-66
2022/05/17 03:06:45;;;;;;;;;;;;;;;22.54;46.33;99536.31;4448682;32;35492;-70
2022/05/17 03:09:16;;;;;;;;;;;;;;;22.49;46.71;99536.06;4447413;32;34509;-66
2022/05/17 03:11:45;;;;;;;;;;;;;;;22.50;46.42;99526.00;4450606;32;34246;-67
2022/05/17 03:14:18;;;;;;;;;;;;;;;22.27;46.93;99528.94;4446573;32;35204;-66
2022/05/17 03:16:48;;;;;;;;;;;;;;;22.47;46.31;99535.44;4448867;32;33155;-70
2022/05/17 03:19:18;;;;;;;;;;;;;;;22.59;45.94;99534.88;4447612;32;33329;-66
2022/05/17 03:21:49;;;;;;;;;;;;;;;22.31;46.64;99527.50;4449602;32;33172;-66
2022/05/17 03:24:17;;;;;;;;;;;;;;;22.08;47.17;99535.84;4446980;32;33273;-63
2022/05/17 03:27:06;;;;;;;;;;;;;;;22.16;46.99;99534.94;4450160;32;33127;-66
2022/05/17 03:29:36;;;;;;;;;;;;;;;22.03;47.11;99533.72;4443928;32;33126;-67
2022/05/17 03:32:05;;;;;;;;;;;;;;;22.09;47.14;99534.84;4446795;32;33982;-68
2022/05/17 03:34:34;;;;;;;;;;;;;;;22.24;47.15;99535.63;4449387;32;33576;-68
2022/05/17 03:37:06;;;;;;;;;;;;;;;22.44;46.55;99534.97;4450001;32;32803;-67
2022/05/17 03:39:36;;;;;;;;;;;;;;;22.55;46.34;99537.16;4449855;32;33631;-67
2022/05/17 03:42:09;;;;;;;;;;;;;;;22.63;46.12;99530.72;4451332;32;35232;-68
2022/05/17 03:44:42;;;;;;;;;;;;;;;22.82;45.62;99531.91;4449464;32;34199;-68
2022/05/17 03:47:21;;;;;;;;;;;;;;;22.94;45.14;99535.81;4449847;32;32995;-69
2022/05/17 03:49:52;;;;;;;;;;;;;;;23.00;44.70;99535.00;4450433;32;33465;-67
2022/05/17 03:52:29;;;;;;;;;;;;;;;23.13;44.57;99531.50;4450506;32;33036;-77
2022/05/17 03:55:01;;;;;;;;;;;;;;;23.06;44.56;99533.38;4442084;32;34461;-72
2022/05/17 03:57:31;;;;;;;;;;;;;;;23.22;43.96;99533.03;4448926;32;34958;-73
2022/05/17 03:59:59;;;;;;;;;;;;;;;23.31;43.96;99526.38;4446707;32;33507;-72
2022/05/17 04:02:27;;;;;;;;;;;;;;;23.25;43.97;99522.56;4440673;32;34161;-71
2022/05/17 04:04:56;;;;;;;;;;;;;;;23.24;43.90;99523.63;4451512;32;33127;-70
2022/05/17 04:07:25;;;;;;;;;;;;;;;23.32;43.69;99529.94;4451260;32;33813;-71
2022/05/17 04:09:53;;;;;;;;;;;;;;;23.39;43.37;99523.44;4447600;32;33673;-71
2022/05/17 04:12:22;;;;;;;;;;;;;;;23.43;43.27;99526.63;4451989;32;34910;-71
2022/05/17 04:14:50;;;;;;;;;;;;;;;23.47;43.24;99530.66;4450412;32;34298;-71
2022/05/17 04:17:19;;;;;;;;;;;;;;;23.27;43.10;99524.22;4451411;32;32684;-70
2022/05/17 04:19:48;;;;;;;;;;;;;;;23.44;42.92;99526.44;4447512;32;32002;-72
2022/05/17 04:22:17;;;;;;;;;;;;;;;23.44;42.64;99526.44;4447033;32;34931;-71
2022/05/17 04:24:47;;;;;;;;;;;;;;;23.66;42.14;99531.78;4449304;32;33145;-67
2022/05/17 04:27:16;;;;;;;;;;;;;;;23.76;42.07;99524.06;4447815;32;33276;-67
2022/05/17 04:29:45;;;;;;;;;;;;;;;23.86;41.93;99520.94;4450889;32;33152;-69
2022/05/17 04:32:20;;;;;;;;;;;;;;;23.98;41.63;99532.09;4447401;32;32850;-68
2022/05/17 04:35:00;;;;;;;;;;;;;;;24.04;41.72;99532.09;4447444;32;33738;-69
2022/05/17 04:37:29;;;;;;;;;;;;;;;23.74;42.47;99528.87;4450058;32;35262;-69
2022/05/17 04:39:58;;;;;;;;;;;;;;;23.99;42.10;99526.44;4448241;32;35002;-70
2022/05/17 04:42:27;;;;;;;;;;;;;;;23.74;43.02;99515.22;4446921;32;34419;-70
2022/05/17 04:44:57;;;;;;;;;;;;;;;23.75;43.09;99516.91;4449909;32;34084;-67
2022/05/17 04:47:27;;;;;;;;;;;;;;;23.95;42.72;99522.44;4450094;32;34135;-68
2022/05/17 04:49:57;;;;;;;;;;;;;;;23.77;43.09;99512.06;4451552;32;32802;-70
2022/05/17 04:52:27;;;;;;;;;;;;;;;23.66;43.25;99520.84;4448403;32;34714;-69
2022/05/17 04:54:56;;;;;;;;;;;;;;;23.10;44.90;99519.09;4449888;32;33279;-69
2022/05/17 04:57:26;;;;;;;;;;;;;;;23.07;44.88;99524.97;4450138;32;33398;-70
2022/05/17 04:59:55;;;;;;;;;;;;;;;23.10;44.66;99527.28;4449872;32;33000;-69
2022/05/17 05:02:24;;;;;;;;;;;;;;;23.04;45.07;99532.72;4443389;32;34376;-69
2022/05/17 05:04:53;;;;;;;;;;;;;;;23.21;44.54;99531.34;4449847;32;34433;-68
2022/05/17 05:07:23;;;;;;;;;;;;;;;23.07;45.05;99535.03;4451082;32;34013;-69
2022/05/17 05:09:52;;;;;;;;;;;;;;;22.87;45.23;99533.00;4445434;32;32223;-69
2022/05/17 05:12:23;;;;;;;;;;;;;;;23.33;44.71;99532.47;4451357;32;34065;-69
2022/05/17 05:14:52;;;;;;;;;;;;;;;23.49;44.58;99529.37;4451239;32;34122;-67
2022/05/17 05:17:23;;;;;;;;;;;;;;;23.46;44.54;99526.22;4451162;32;33321;-68
2022/05/17 05:19:57;;;;;;;;;;;;;;;23.68;43.80;99527.81;4447763;32;35135;-69
2022/05/17 05:22:26;;;;;;;;;;;;;;;23.65;43.77;99519.16;4448145;32;34722;-72
2022/05/17 05:24:54;;;;;;;;;;;;;;;23.57;44.55;99528.37;4446604;32;34354;-70
2022/05/17 05:27:23;;;;;;;;;;;;;;;23.40;44.95;99533.34;4446751;32;34270;-69
2022/05/17 05:29:52;;;;;;;;;;;;;;;22.66;46.38;99533.88;4447550;32;33493;-66
2022/05/17 05:32:20;;;;;;;;;;;;;;;22.84;46.28;99536.13;4450690;32;35263;-71
2022/05/17 05:34:48;;;;;;;;;;;;;;;23.15;45.27;99535.75;4446983;32;33888;-69
2022/05/17 05:37:17;;;;;;;;;;;;;;;22.83;46.57;99533.63;4448012;32;35567;-67
2022/05/17 05:39:45;;;;;;;;;;;;;;;23.13;45.75;99534.25;4448830;32;34842;-67
2022/05/17 05:42:14;;;;;;;;;;;;;;;22.96;45.88;99531.84;4449211;32;35021;-69
2022/05/17 05:44:43;;;;;;;;;;;;;;;23.40;45.14;99529.75;4450850;32;34785;-71
2022/05/17 05:47:12;;;;;;;;;;;;;;;23.55;44.82;99526.88;4447589;32;34455;-67
2022/05/17 05:49:40;;;;;;;;;;;;;;;23.73;44.53;99534.56;4448707;32;32540;-68
2022/05/17 05:52:15;;;;;;;;;;;;;;;23.87;44.47;99539.84;4449590;32;33073;-66
2022/05/17 05:54:44;;;;;;;;;;;;;;;23.47;45.21;99528.75;4446380;32;34219;-67
2022/05/17 05:57:12;;;;;;;;;;;;;;;23.19;46.06;99538.91;4447207;32;35242;-70
2022/05/17 05:59:41;;;;;;;;;;;;;;;23.11;46.92;99539.88;4446963;32;32413;-67
2022/05/17 06:02:09;;;;;;;;;;;;;;;23.02;47.21;99536.50;4449077;32;34275;-69
2022/05/17 06:04:38;;;;;;;;;;;;;;;22.68;49.09;99537.28;4450548;32;33221;-66
2022/05/17 06:07:06;;;;;;;;;;;;;;;22.66;49.04;99547.53;4448136;32;34233;-70
2022/05/17 06:09:35;;;;;;;;;;;;;;;22.62;49.64;99539.94;4448165;32;32367;-72
2022/05/17 06:12:04;;;;;;;;;;;;;;;22.53;50.42;99545.53;4444377;32;34011;-70
2022/05/17 06:14:31;;;;;;;;;;;;;;;22.33;50.81;99550.81;4450310;32;32745;-72
2022/05/17 06:16:59;;;;;;;;;;;;;;;22.83;49.80;99552.72;4445897;32;32843;-70
2022/05/17 06:19:28;;;;;;;;;;;;;;;22.78;50.02;99556.03;4435845;32;32344;-73
2022/05/17 06:21:56;;;;;;;;;;;;;;;23.13;49.36;99553.34;4446153;32;33734;-71
2022/05/17 06:24:24;;;;;;;;;;;;;;;23.28;49.08;99562.28;4449503;32;34424;-72
2022/05/17 06:26:54;;;;;;;;;;;;;;;22.62;50.72;99565.34;4446619;32;34576;-72
2022/05/17 06:29:22;;;;;;;;;;;;;;;22.72;50.41;99565.00;4446046;32;33737;-70
2022/05/17 06:31:51;;;;;;;;;;;;;;;22.92;50.31;99566.00;4448501;32;34195;-70
2022/05/17 06:34:20;;;;;;;;;;;;;;;22.96;50.13;99570.06;4447736;32;34737;-70
2022/05/17 06:36:49;;;;;;;;;;;;;;;22.55;51.22;99564.44;4448815;32;33563;-69
2022/05/17 06:39:20;;;;;;;;;;;;;;;22.89;50.83;99566.41;4449641;32;31980;-71
2022/05/17 06:41:51;;;;;;;;;;;;;;;23.52;49.34;99563.66;4414949;32;1106303;-72
2022/05/17 06:44:19;;;;;;;;;;;;;;;23.18;50.13;99570.00;4444047;32;33216;-70
2022/05/17 06:46:47;;;;;;;;;;;;;;;23.25;50.55;99568.97;4449131;32;33220;-71
2022/05/17 06:49:15;;;;;;;;;;;;;;;23.11;50.31;99569.09;4447577;32;32612;-70
2022/05/17 06:51:42;;;;;;;;;;;;;;;23.31;50.40;99578.25;4450603;32;34052;-70
2022/05/17 06:54:11;;;;;;;;;;;;;;;22.66;51.89;99573.97;4443340;32;34303;-68
2022/05/17 06:56:38;;;;;;;;;;;;;;;23.06;51.61;99574.31;4450152;32;34474;-70
2022/05/17 06:59:07;;;;;;;;;;;;;;;22.82;51.85;99581.84;4447935;32;32203;-69
2022/05/17 07:01:35;;;;;;;;;;;;;;;22.72;52.40;99565.84;4447678;32;35245;-70
2022/05/17 07:04:05;;;;;;;;;;;;;;;23.08;52.07;99567.63;4447707;32;32993;-68
2022/05/17 07:06:34;;;;;;;;;;;;;;;23.01;51.01;99556.63;4451099;32;34216;-71
2022/05/17 07:09:02;;;;;;;;;;;;;;;23.47;50.57;99572.47;4448896;32;33556;-70
2022/05/17 07:14:18;;;;;;;;;;;;;;;23.78;48.79;99565.66;4446428;32;33042;-70
2022/05/17 07:16:46;;;;;;;;;;;;;;;23.81;48.82;99570.72;4449972;32;34369;-71
2022/05/17 07:19:14;;;;;;;;;;;;;;;24.00;48.25;99568.28;4450793;32;34651;-70
2022/05/17 07:22:01;;;;;;;;;;;;;;;24.36;47.93;99576.13;4449522;32;35191;-71
2022/05/17 07:24:30;;;;;;;;;;;;;;;24.04;48.60;99564.91;4448126;32;34178;-69
2022/05/17 07:27:00;;;;;;;;;;;;;;;23.21;49.98;99570.44;4450852;32;34755;-71
2022/05/17 07:29:47;;;;;;;;;;;;;;;23.14;50.35;99576.88;4447998;32;34347;-68
2022/05/17 07:32:16;;;;;;;;;;;;;;;23.12;50.74;99576.25;4446315;32;33842;-71
2022/05/17 07:34:44;;;;;;;;;;;;;;;23.21;50.55;99578.62;4451370;32;34238;-69
2022/05/17 07:37:13;;;;;;;;;;;;;;;22.96;51.08;99589.16;4451088;32;34868;-70
2022/05/17 07:39:42;;;;;;;;;;;;;;;22.93;51.69;99583.22;4451513;32;33636;-70
2022/05/17 07:42:10;;;;;;;;;;;;;;;23.22;50.96;99587.66;4448126;32;33389;-69
2022/05/17 07:44:39;;;;;;;;;;;;;;;23.21;51.40;99580.47;4448219;32;35842;-69
2022/05/17 07:47:14;;;;;;;;;;;;;;;23.42;50.96;99587.75;4449611;32;33415;-70
2022/05/17 07:49:42;;;;;;;;;;;;;;;23.65;50.82;99584.72;4448654;32;33639;-69
2022/05/17 07:52:11;;;;;;;;;;;;;;;22.97;52.79;99584.53;4450289;32;34473;-70
2022/05/17 07:54:41;;;;;;;;;;;;;;;23.22;52.13;99584.91;4451483;32;34121;-69
2022/05/17 07:57:09;;;;;;;;;;;;;;;22.99;52.92;99587.91;4449081;32;34014;-69
2022/05/17 07:59:39;;;;;;;;;;;;;;;22.76;53.29;99588.97;4446166;32;33724;-70
2022/05/17 08:02:07;;;;;;;;;;;;;;;22.82;53.65;99583.75;4446835;32;34153;-72
2022/05/17 08:04:37;;;;;;;;;;;;;;;22.49;54.08;99587.88;4450394;32;33170;-72
2022/05/17 08:07:05;;;;;;;;;;;;;;;22.75;52.94;99597.34;4450379;32;35259;-68
2022/05/17 08:09:35;;;;;;;;;;;;;;;22.41;54.36;99592.66;4449551;32;33632;-70
2022/05/17 08:12:06;;;;;;;;;;;;;;;22.33;54.66;99597.16;4448455;32;34069;-70
2022/05/17 08:14:35;;;;;;;;;;;;;;;22.77;53.51;99596.09;4448222;32;34070;-68
2022/05/17 08:17:06;;;;;;;;;;;;;;;22.30;55.39;99591.25;4448131;32;32632;-70
2022/05/17 08:19:36;;;;;;;;;;;;;;;22.95;54.01;99595.66;4447627;32;33747;-70
2022/05/17 08:22:05;;;;;;;;;;;;;;;22.52;54.60;99592.09;4452000;32;34281;-69
2022/05/17 08:27:31;;;;;;;;;;;;;;;22.88;53.73;99600.16;4450845;32;35159;-69
2022/05/17 08:27:39;;;;;;;;;;;;;;;22.42;54.63;99599.78;4450818;32;33451;-69
2022/05/17 08:30:15;;;;;;;;;;;;;;;22.40;55.54;99610.03;4446863;32;32270;-70
2022/05/17 08:35:52;;;;;;;;;;;;;;;22.29;54.74;99600.50;4452887;32;35197;-71
2022/05/17 08:38:34;;;;;;;;;;;;;;;22.02;55.40;99611.06;4451238;32;33703;-68
2022/05/17 08:41:42;;;;;;;;;;;;;;;22.82;53.89;99609.16;4450018;32;33273;-68
2022/05/17 08:44:22;;;;;;;;;;;;;;;22.51;54.40;99613.09;4450676;32;32790;-69
2022/05/17 08:47:06;;;;;;;;;;;;;;;22.68;54.06;99616.38;4451415;32;34616;-68
2022/05/17 08:50:02;;;;;;;;;;;;;;;22.68;54.14;99619.09;4452273;32;34337;-68
2022/05/17 08:52:47;;;;;;;;;;;;;;;22.42;55.36;99627.87;4454422;32;34664;-70
2022/05/17 08:55:28;;;;;;;;;;;;;;;22.94;54.83;99625.88;4445600;32;34262;-70
2022/05/17 08:58:12;;;;;;;;;;;;;;;22.73;56.33;99626.72;4450304;32;34656;-69
2022/05/17 09:00:47;;;;;;;;;;;;;;;22.22;60.86;99644.03;4451203;32;32971;-69
2022/05/17 09:03:25;;;;;;;;;;;;;;;22.02;60.85;99638.31;4448878;32;31965;-70
2022/05/17 09:06:20;;;;;;;;;;;;;;;22.66;59.50;99640.28;4446532;32;32941;-69
2022/05/17 09:09:00;;;;;;;;;;;;;;;22.22;61.27;99637.75;4450105;32;32713;-70
2022/05/17 09:11:33;;;;;;;;;;;;;;;22.30;61.41;99633.00;4447803;32;32997;-69
2022/05/17 09:14:03;;;;;;;;;;;;;;;22.28;60.74;99639.69;4449211;32;33801;-67
2022/05/17 09:16:41;;;;;;;;;;;;;;;22.16;61.09;99630.34;4449797;32;34558;-69
2022/05/17 09:19:13;;;;;;;;;;;;;;;22.28;60.94;99637.81;4444102;32;32969;-67
2022/05/17 09:21:48;;;;;;;;;;;;;;;22.42;61.00;99635.22;4448487;32;33175;-69
2022/05/17 09:24:19;;;;;;;;;;;;;;;22.62;59.65;99638.97;4448266;32;32688;-68
2022/05/17 09:26:56;;;;;;;;;;;;;;;22.89;59.78;99631.03;4452580;32;32574;-69
2022/05/17 09:29:49;;;;;;;;;;;;;;;22.99;60.47;99632.44;4448543;32;32972;-68
2022/05/17 09:32:30;;;;;;;;;;;;;;;23.04;60.59;99633.72;4449656;32;34245;-69
2022/05/17 09:35:11;;;;;;;;;;;;;;;23.15;60.17;99625.81;4445928;32;33658;-69
2022/05/17 09:37:47;;;;;;;;;;;;;;;23.33;58.48;99624.47;4446805;32;33184;-68
2022/05/17 09:40:23;;;;;;;;;;;;;;;23.40;59.11;99625.34;4450948;32;33049;-67
2022/05/17 09:43:00;;;;;;;;;;;;;;;23.48;58.67;99620.56;4450638;32;33922;-68
2022/05/17 09:45:50;;;;;;;;;;;;;;;23.29;58.81;99626.75;4449273;32;32391;-68
2022/05/17 09:48:27;;;;;;;;;;;;;;;23.38;59.10;99620.09;4444599;32;34395;-71
2022/05/17 09:53:49;;;;;;;;;;;;;;;23.43;58.53;99608.56;4446678;32;33070;-68
2022/05/17 09:56:26;;;;;;;;;;;;;;;22.99;59.78;99610.59;4439391;32;33711;-68
2022/05/17 09:58:58;;;;;;;;;;;;;;;23.30;59.05;99611.22;4444995;32;34196;-69
2022/05/17 10:01:38;;;;;;;;;;;;;;;23.64;58.77;99613.09;4458237;32;33039;-70
2022/05/17 10:04:11;;;;;;;;;;;;;;;23.49;59.48;99607.75;4452950;32;33998;-68
2022/05/17 10:06:43;;;;;;;;;;;;;;;23.60;58.93;99611.81;4450786;32;33780;-70
2022/05/17 10:09:30;;;;;;;;;;;;;;;23.33;58.45;99610.81;4450195;32;32658;-69
2022/05/17 10:12:08;;;;;;;;;;;;;;;23.32;58.64;99612.69;4438535;32;35539;-70
2022/05/17 10:14:40;;;;;;;;;;;;;;;23.59;58.88;99602.75;4449612;32;33443;-68
2022/05/17 10:17:08;;;;;;;;;;;;;;;23.60;58.33;99606.34;4437692;32;32471;-72
2022/05/17 10:19:39;;;;;;;;;;;;;;;23.93;58.32;99607.34;4443033;32;32526;-71
2022/05/17 10:22:13;;;;;;;;;;;;;;;23.71;59.25;99606.63;4447753;32;34491;-68
2022/05/17 10:24:42;;;;;;;;;;;;;;;23.38;58.21;99603.72;4441444;32;32965;-70
2022/05/17 10:27:13;;;;;;;;;;;;;;;23.25;58.03;99600.91;4445826;32;33752;-68
2022/05/17 10:29:54;;;;;;;;;;;;;;;23.71;57.64;99606.63;4447707;32;35126;-68
2022/05/17 10:32:35;;;;;;;;;;;;;;;23.89;57.67;99597.06;4443924;32;34538;-69
2022/05/17 10:35:22;;;;;;;;;;;;;;;23.79;58.88;99605.63;4429889;32;32708;-68
2022/05/17 10:37:57;;;;;;;;;;;;;;;24.00;58.92;99599.19;4444579;32;33660;-70
2022/05/17 10:40:33;;;;;;;;;;;;;;;23.68;58.91;99604.31;4439601;32;33749;-68
2022/05/17 10:43:01;;;;;;;;;;;;;;;24.15;56.84;99601.75;4441493;32;34482;-68
2022/05/17 10:45:33;;;;;;;;;;;;;;;24.09;56.01;99605.31;4442542;32;34241;-68
2022/05/17 10:48:11;;;;;;;;;;;;;;;24.28;56.26;99604.53;4440765;32;32659;-69
2022/05/17 10:50:48;;;;;;;;;;;;;;;24.02;56.96;99609.94;4442230;32;34202;-73
2022/05/17 10:53:35;;;;;;;;;;;;;;;24.31;56.32;99606.00;4444665;32;34460;-71
2022/05/17 10:56:10;;;;;;;;;;;;;;;24.34;56.74;99594.66;4444656;32;35517;-70
2022/05/17 10:58:57;;;;;;;;;;;;;;;24.38;55.46;99596.75;4440619;32;33341;-73
2022/05/17 11:01:33;;;;;;;;;;;;;;;23.93;57.41;99601.88;4442422;32;34122;-69
2022/05/17 11:04:07;;;;;;;;;;;;;;;23.67;56.09;99604.50;4446320;32;34160;-71
2022/05/17 11:07:01;;;;;;;;;;;;;;;23.13;57.89;99603.34;4448242;32;34042;-69
2022/05/17 11:09:33;;;;;;;;;;;;;;;23.46;55.66;99595.34;4445309;32;32858;-68
2022/05/17 11:12:09;;;;;;;;;;;;;;;23.94;54.81;99594.53;4448393;32;33820;-66
2022/05/17 11:14:50;;;;;;;;;;;;;;;23.78;55.30;99592.16;4447530;32;33318;-66
2022/05/17 11:17:36;;;;;;;;;;;;;;;24.00;54.33;99587.41;4422794;32;32869;-68
2022/05/17 11:20:13;;;;;;;;;;;;;;;24.00;54.27;99587.41;4447636;32;31874;-67
2022/05/17 11:22:49;;;;;;;;;;;;;;;24.21;54.59;99591.91;4445856;32;36282;-69
2022/05/17 11:25:17;;;;;;;;;;;;;;;24.31;54.48;99595.06;4450971;32;34249;-70
2022/05/17 11:28:04;;;;;;;;;;;;;;;24.26;54.07;99583.91;4448468;32;34378;-70
2022/05/17 11:30:34;;;;;;;;;;;;;;;24.43;54.16;99581.63;4439629;32;32178;-69
2022/05/17 11:33:12;;;;;;;;;;;;;;;24.24;53.61;99583.25;4441681;32;33996;-67
2022/05/17 11:36:01;;;;;;;;;;;;;;;24.46;53.75;99579.31;4445496;32;34308;-68
2022/05/17 11:38:32;;;;;;;;;;;;;;;24.28;54.22;99574.44;4449039;32;35572;-68
2022/05/17 11:41:21;;;;;;;;;;;;;;;24.46;53.44;99573.00;4448101;32;33468;-68
2022/05/17 11:43:51;;;;;;;;;;;;;;;24.40;54.03;99569.22;4447281;32;35188;-68
2022/05/17 11:46:29;;;;;;;;;;;;;;;24.64;52.65;99562.28;4448343;32;33240;-68
2022/05/17 11:48:59;;;;;;;;;;;;;;;24.02;53.89;99566.19;4446514;32;33425;-68
2022/05/17 11:51:30;;;;;;;;;;;;;;;24.67;52.25;99561.88;4445063;32;33059;-68
2022/05/17 11:54:00;;;;;;;;;;;;;;;24.31;52.83;99554.88;4447958;32;33519;-68
2022/05/17 11:56:34;;;;;;;;;;;;;;;24.53;52.76;99558.31;4450597;32;34278;-68
2022/05/17 11:59:08;;;;;;;;;;;;;;;24.71;52.66;99556.81;4446174;32;34234;-67
2022/05/17 12:01:37;;;;;;;;;;;;;;;24.49;53.79;99550.72;4441932;32;33446;-67
2022/05/17 12:04:19;;;;;;;;;;;;;;;23.99;54.75;99553.75;4445045;32;33288;-68
2022/05/17 12:06:51;;;;;;;;;;;;;;;24.45;54.01;99554.91;4449700;32;33352;-67
2022/05/17 12:09:20;;;;;;;;;;;;;;;24.36;54.38;99549.59;4438573;32;34081;-70
2022/05/17 12:12:04;;;;;;;;;;;;;;;24.78;52.94;99550.31;4447160;32;32123;-67
2022/05/17 12:14:32;;;;;;;;;;;;;;;24.90;53.11;99552.37;4448152;32;33803;-67
2022/05/17 12:17:05;;;;;;;;;;;;;;;24.17;54.00;99553.16;4457395;32;34835;-67
2022/05/17 12:19:44;;;;;;;;;;;;;;;23.94;54.88;99550.78;4446362;32;34641;-67
2022/05/17 12:22:17;;;;;;;;;;;;;;;24.58;53.12;99544.81;4443422;32;33356;-67
2022/05/17 12:24:50;;;;;;;;;;;;;;;24.53;52.95;99546.53;4433149;32;33914;-66
2022/05/17 12:27:31;;;;;;;;;;;;;;;24.72;52.94;99551.16;4445488;32;34429;-68
2022/05/17 12:32:53;;;;;;;;;;;;;;;24.50;52.34;99545.03;4439024;32;33766;-68
2022/05/17 12:35:25;;;;;;;;;;;;;;;24.80;50.88;99537.22;4444666;32;35025;-68
2022/05/17 12:37:53;;;;;;;;;;;;;;;24.97;50.63;99534.88;4442142;32;35677;-69
2022/05/17 12:43:14;;;;;;;;;;;;;;;24.44;52.08;99532.19;4445234;32;33676;-66
2022/05/17 12:45:46;;;;;;;;;;;;;;;24.58;51.11;99535.78;4444506;32;34019;-67
2022/05/17 12:48:15;;;;;;;;;;;;;;;24.70;52.23;99530.50;4445689;32;34141;-68
2022/05/17 12:50:50;;;;;;;;;;;;;;;24.81;51.23;99530.69;4447658;32;34664;-67
2022/05/17 12:53:21;;;;;;;;;;;;;;;24.95;50.83;99527.97;4448401;32;33444;-67
2022/05/17 12:56:00;;;;;;;;;;;;;;;24.60;51.46;99529.03;4445424;32;33517;-67
2022/05/17 12:58:30;;;;;;;;;;;;;;;24.69;52.98;99521.47;4448692;32;34297;-68
2022/05/17 13:00:59;;;;;;;;;;;;;;;24.32;52.69;99515.53;4447110;32;32851;-66
2022/05/17 13:03:28;;;;;;;;;;;;;;;24.18;51.12;99511.94;4444193;32;33435;-67
2022/05/17 13:05:59;;;;;;;;;;;;;;;23.91;52.35;99515.69;4443441;32;33894;-69
2022/05/17 13:08:35;;;;;;;;;;;;;;;23.94;52.46;99520.72;4437610;32;33988;-67
2022/05/17 13:11:08;;;;;;;;;;;;;;;23.83;52.18;99513.16;4439181;32;34614;-67
2022/05/17 13:13:37;;;;;;;;;;;;;;;24.11;51.70;99518.47;4442857;32;32033;-66
2022/05/17 13:16:13;;;;;;;;;;;;;;;23.20;53.46;99513.28;4437556;32;34934;-67
2022/05/17 13:18:44;;;;;;;;;;;;;;;23.80;51.92;99506.19;4434229;32;32688;-68
2022/05/17 13:21:21;;;;;;;;;;;;;;;23.91;51.97;99515.69;4440058;32;34591;-66
2022/05/17 13:23:51;;;;;;;;;;;;;;;24.25;51.97;99502.91;4442142;32;33439;-65
2022/05/17 13:26:22;;;;;;;;;;;;;;;23.84;52.27;99509.34;4444181;32;34139;-67
2022/05/17 13:28:51;;;;;;;;;;;;;;;23.65;52.46;99508.22;4425913;32;33321;-68
2022/05/17 13:31:23;;;;;;;;;;;;;;;23.13;53.63;99506.94;4441293;32;32683;-67
2022/05/17 13:34:01;;;;;;;;;;;;;;;23.37;52.06;99509.19;4445471;32;33518;-67